createdAt,value
2022-08-26T00:01:03.134Z,19.20
2022-08-26T00:04:01.558Z,19.20
2022-08-26T00:06:59.051Z,19.20
2022-08-26T00:09:56.534Z,19.10
2022-08-26T00:12:54.017Z,19.10
2022-08-26T00:15:51.648Z,19.10
2022-08-26T00:18:49.129Z,19.10
2022-08-26T00:21:48.855Z,19.02
2022-08-26T00:24:47.896Z,19.00
2022-08-26T00:27:45.639Z,19.00
2022-08-26T00:30:43.139Z,19.00
2022-08-26T00:33:43.128Z,19.00
2022-08-26T00:36:42.143Z,19.00
2022-08-26T00:39:41.178Z,19.00
2022-08-26T00:42:38.652Z,18.90
2022-08-26T00:45:43.593Z,18.90
2022-08-26T00:48:41.096Z,18.90
2022-08-26T00:51:39.575Z,18.88
2022-08-26T00:54:37.056Z,18.80
2022-08-26T00:57:34.516Z,18.80
2022-08-26T01:00:32.000Z,18.80
2022-08-26T01:03:29.512Z,18.80
2022-08-26T01:06:27.460Z,18.80
2022-08-26T01:09:24.929Z,18.80
2022-08-26T01:12:22.439Z,18.70
2022-08-26T01:15:19.923Z,18.70
2022-08-26T01:18:17.412Z,18.70
2022-08-26T01:21:14.912Z,18.70
2022-08-26T01:24:13.924Z,18.62
2022-08-26T01:27:11.634Z,18.60
2022-08-26T01:30:09.457Z,18.60
2022-08-26T01:33:07.050Z,18.60
2022-08-26T01:36:04.654Z,18.60
2022-08-26T01:39:02.135Z,18.60
2022-08-26T01:42:03.546Z,18.56
2022-08-26T01:45:01.005Z,18.50
2022-08-26T01:47:59.919Z,18.50
2022-08-26T01:50:57.662Z,18.50
2022-08-26T01:53:55.261Z,18.50
2022-08-26T01:56:52.740Z,18.42
2022-08-26T01:59:50.321Z,18.40
2022-08-26T02:02:47.932Z,18.40
2022-08-26T02:05:45.683Z,18.40
2022-08-26T02:08:46.433Z,18.40
2022-08-26T02:11:45.246Z,18.32
2022-08-26T02:14:43.639Z,18.30
2022-08-26T02:17:41.941Z,18.30
2022-08-26T02:20:39.418Z,18.28
2022-08-26T02:23:36.962Z,18.20
2022-08-26T02:26:35.757Z,18.20
2022-08-26T02:29:34.680Z,18.20
2022-08-26T02:32:32.145Z,18.16
2022-08-26T02:35:29.602Z,18.10
2022-08-26T02:38:27.894Z,18.10
2022-08-26T02:41:25.377Z,18.10
2022-08-26T02:44:22.861Z,18.02
2022-08-26T02:47:20.359Z,18.00
2022-08-26T02:50:22.729Z,18.00
2022-08-26T02:53:25.044Z,17.98
2022-08-26T02:56:23.050Z,17.92
2022-08-26T02:59:20.538Z,17.90
2022-08-26T03:02:22.208Z,17.90
2022-08-26T03:05:22.232Z,17.90
2022-08-26T03:08:22.367Z,17.90
2022-08-26T03:11:20.286Z,17.80
2022-08-26T03:14:19.288Z,17.80
2022-08-26T03:17:17.025Z,17.80
2022-08-26T03:20:15.566Z,17.80
2022-08-26T03:23:14.942Z,17.78
2022-08-26T03:26:12.402Z,17.70
2022-08-26T03:29:28.055Z,17.70
2022-08-26T03:32:30.455Z,17.70
2022-08-26T03:35:27.935Z,17.70
2022-08-26T03:38:26.386Z,17.70
2022-08-26T03:41:24.187Z,17.64
2022-08-26T03:44:21.670Z,17.60
2022-08-26T03:47:19.161Z,17.60
2022-08-26T03:50:16.639Z,17.60
2022-08-26T03:53:20.651Z,17.60
2022-08-26T03:56:18.203Z,17.56
2022-08-26T03:59:15.678Z,17.50
2022-08-26T04:02:13.129Z,17.50
2022-08-26T04:05:11.300Z,17.50
2022-08-26T04:08:10.048Z,17.50
2022-08-26T04:11:08.619Z,17.48
2022-08-26T04:14:07.807Z,17.40
2022-08-26T04:17:05.371Z,17.40
2022-08-26T04:20:03.529Z,17.40
2022-08-26T04:23:01.026Z,17.40
2022-08-26T04:25:58.496Z,17.40
2022-08-26T04:28:55.957Z,17.40
2022-08-26T04:31:55.497Z,17.40
2022-08-26T04:34:53.379Z,17.40
2022-08-26T04:37:50.928Z,17.40
2022-08-26T04:40:48.419Z,17.48
2022-08-26T04:43:46.619Z,17.50
2022-08-26T04:46:44.188Z,17.50
2022-08-26T04:49:42.248Z,17.60
2022-08-26T04:52:39.721Z,17.60
2022-08-26T04:55:38.770Z,17.70
2022-08-26T04:58:37.375Z,17.70
2022-08-26T05:01:34.915Z,17.80
2022-08-26T05:04:37.195Z,17.90
2022-08-26T05:07:35.405Z,17.90
2022-08-26T05:10:34.708Z,18.00
2022-08-26T05:13:32.200Z,18.10
2022-08-26T05:16:31.873Z,18.20
2022-08-26T05:19:29.612Z,18.30
2022-08-26T05:22:27.106Z,18.40
2022-08-26T05:25:24.593Z,18.50
2022-08-26T05:28:24.889Z,18.60
2022-08-26T05:31:22.602Z,18.78
2022-08-26T05:34:20.906Z,18.90
2022-08-26T05:37:19.415Z,19.00
2022-08-26T05:40:18.535Z,19.10
2022-08-26T05:43:17.039Z,19.30
2022-08-26T05:46:17.738Z,19.40
2022-08-26T05:49:15.926Z,19.50
2022-08-26T05:52:13.470Z,19.68
2022-08-26T05:55:10.946Z,19.80
2022-08-26T05:58:08.713Z,20.00
2022-08-26T06:01:06.402Z,20.20
2022-08-26T06:04:03.877Z,20.38
2022-08-26T06:07:01.380Z,20.54
2022-08-26T06:10:28.240Z,20.76
2022-08-26T06:13:17.270Z,21.00
2022-08-26T06:16:14.864Z,21.28
2022-08-26T06:19:12.444Z,21.52
2022-08-26T06:22:24.108Z,21.86
2022-08-26T06:25:42.151Z,22.20
2022-08-26T06:28:40.864Z,22.50
2022-08-26T06:31:41.091Z,22.84
2022-08-26T06:34:38.601Z,23.12
2022-08-26T06:37:36.248Z,23.46
2022-08-26T06:40:34.051Z,23.78
2022-08-26T06:43:32.688Z,24.06
2022-08-26T06:46:30.806Z,24.40
2022-08-26T06:49:28.296Z,24.70
2022-08-26T06:52:25.783Z,25.04
2022-08-26T06:55:23.245Z,25.40
2022-08-26T06:58:24.681Z,25.72
2022-08-26T07:01:22.182Z,26.00
2022-08-26T07:04:22.469Z,26.42
2022-08-26T07:07:21.613Z,26.90
2022-08-26T07:10:19.650Z,27.30
2022-08-26T07:13:18.350Z,27.64
2022-08-26T07:16:28.291Z,28.10
2022-08-26T07:19:30.430Z,28.60
2022-08-26T07:22:29.165Z,28.90
2022-08-26T07:25:28.030Z,29.00
2022-08-26T07:28:26.101Z,29.00
2022-08-26T07:31:23.586Z,29.10
2022-08-26T07:34:22.392Z,29.22
2022-08-26T07:37:19.870Z,29.48
2022-08-26T07:40:17.727Z,29.80
2022-08-26T07:43:16.293Z,29.90
2022-08-26T07:46:18.679Z,30.10
2022-08-26T07:49:25.281Z,30.32
2022-08-26T07:52:26.648Z,30.60
2022-08-26T07:55:24.644Z,30.90
2022-08-26T07:58:22.517Z,31.18
2022-08-26T08:01:20.035Z,31.60
2022-08-26T08:04:17.783Z,32.00
2022-08-26T08:07:15.798Z,32.30
2022-08-26T08:10:13.629Z,32.60
2022-08-26T08:13:11.138Z,32.80
2022-08-26T08:16:12.652Z,33.20
2022-08-26T08:19:10.296Z,33.40
2022-08-26T08:22:17.546Z,33.68
2022-08-26T08:25:17.144Z,33.90
2022-08-26T08:28:14.809Z,34.00
2022-08-26T08:31:12.645Z,33.90
2022-08-26T08:34:11.163Z,34.06
2022-08-26T08:37:10.801Z,34.30
2022-08-26T08:40:09.086Z,34.50
2022-08-26T08:43:06.764Z,34.80
2022-08-26T08:46:04.467Z,35.20
2022-08-26T08:49:04.286Z,35.20
2022-08-26T08:52:01.747Z,35.32
2022-08-26T08:54:59.312Z,35.30
2022-08-26T08:58:02.029Z,35.30
2022-08-26T09:00:59.905Z,35.60
2022-08-26T09:03:57.378Z,35.78
2022-08-26T09:06:54.912Z,35.72
2022-08-26T09:09:52.525Z,35.90
2022-08-26T09:12:50.133Z,36.18
2022-08-26T09:15:47.710Z,36.40
2022-08-26T09:18:46.670Z,36.30
2022-08-26T09:21:44.687Z,36.46
2022-08-26T09:24:49.160Z,36.50
2022-08-26T09:27:46.838Z,36.64
2022-08-26T09:30:48.173Z,36.98
2022-08-26T09:33:46.247Z,37.04
2022-08-26T09:36:43.872Z,37.00
2022-08-26T09:39:41.354Z,37.12
2022-08-26T09:42:38.825Z,37.38
2022-08-26T09:45:38.916Z,37.70
2022-08-26T09:48:36.595Z,37.80
2022-08-26T09:51:34.380Z,37.94
2022-08-26T09:54:32.438Z,38.34
2022-08-26T09:57:30.960Z,38.60
2022-08-26T10:00:29.153Z,39.02
2022-08-26T10:03:27.178Z,39.24
2022-08-26T10:06:24.997Z,39.40
2022-08-26T10:09:22.578Z,39.46
2022-08-26T10:12:21.769Z,39.30
2022-08-26T10:15:19.583Z,39.40
2022-08-26T10:18:19.934Z,39.40
2022-08-26T10:21:17.866Z,39.12
2022-08-26T10:24:15.638Z,38.90
2022-08-26T10:27:13.730Z,38.82
2022-08-26T10:30:11.552Z,38.90
2022-08-26T10:33:09.184Z,38.80
2022-08-26T10:36:12.255Z,38.50
2022-08-26T10:39:12.929Z,38.16
2022-08-26T10:42:11.692Z,38.00
2022-08-26T10:45:11.818Z,37.80
2022-08-26T10:48:12.388Z,37.68
2022-08-26T10:51:10.460Z,37.70
2022-08-26T10:54:07.951Z,37.80
2022-08-26T10:57:06.543Z,37.98
2022-08-26T11:00:28.370Z,37.80
2022-08-26T11:03:26.100Z,37.54
2022-08-26T11:06:23.582Z,37.60
2022-08-26T11:09:21.066Z,38.08
2022-08-26T11:12:26.375Z,38.66
2022-08-26T11:15:24.478Z,39.06
2022-08-26T11:18:22.633Z,39.20
2022-08-26T11:21:22.666Z,39.34
2022-08-26T11:24:27.220Z,39.30
2022-08-26T11:27:26.028Z,39.34
2022-08-26T11:30:24.118Z,39.30
2022-08-26T11:33:21.714Z,39.40
2022-08-26T11:36:19.167Z,39.50
2022-08-26T11:39:19.023Z,39.78
2022-08-26T11:42:16.835Z,39.90
2022-08-26T11:45:17.815Z,39.76
2022-08-26T11:48:15.974Z,39.90
2022-08-26T11:51:13.534Z,39.90
2022-08-26T11:54:11.048Z,39.90
2022-08-26T11:57:09.606Z,40.10
2022-08-26T12:00:12.541Z,40.38
2022-08-26T12:03:12.053Z,40.60
2022-08-26T12:06:10.363Z,40.60
2022-08-26T12:09:11.757Z,40.80
2022-08-26T12:12:09.270Z,40.80
2022-08-26T12:15:10.775Z,40.70
2022-08-26T12:18:08.356Z,40.60
2022-08-26T12:21:06.462Z,40.60
2022-08-26T12:24:04.167Z,40.60
2022-08-26T12:27:01.692Z,40.60
2022-08-26T12:29:59.185Z,40.50
2022-08-26T12:32:58.744Z,40.58
2022-08-26T12:35:57.024Z,40.70
2022-08-26T12:38:57.987Z,40.60
2022-08-26T12:41:56.001Z,40.70
2022-08-26T12:44:54.607Z,40.70
2022-08-26T12:47:52.328Z,40.82
2022-08-26T12:50:49.871Z,40.80
2022-08-26T12:53:47.396Z,40.50
2022-08-26T12:56:44.915Z,40.00
2022-08-26T12:59:42.430Z,39.70
2022-08-26T13:02:40.285Z,39.80
2022-08-26T13:05:38.133Z,39.90
2022-08-26T13:08:35.658Z,39.60
2022-08-26T13:11:33.210Z,39.14
2022-08-26T13:14:31.331Z,38.70
2022-08-26T13:17:28.856Z,38.50
2022-08-26T13:20:26.868Z,38.60
2022-08-26T13:23:24.479Z,38.76
2022-08-26T13:26:22.002Z,38.40
2022-08-26T13:29:19.532Z,38.10
2022-08-26T13:32:18.492Z,37.90
2022-08-26T13:35:16.046Z,37.60
2022-08-26T13:38:22.334Z,37.30
2022-08-26T13:41:32.223Z,37.20
2022-08-26T13:44:29.744Z,37.00
2022-08-26T13:47:28.184Z,36.62
2022-08-26T13:50:25.706Z,36.30
2022-08-26T13:53:23.425Z,36.40
2022-08-26T13:56:21.671Z,36.52
2022-08-26T13:59:19.632Z,36.60
2022-08-26T14:02:17.163Z,36.50
2022-08-26T14:05:14.687Z,36.20
2022-08-26T14:08:12.205Z,36.00
2022-08-26T14:11:10.024Z,36.00
2022-08-26T14:14:07.858Z,36.00
2022-08-26T14:17:05.383Z,36.00
2022-08-26T14:20:02.899Z,36.26
2022-08-26T14:23:15.682Z,36.36
2022-08-26T14:26:28.104Z,36.46
2022-08-26T14:29:27.078Z,36.50
2022-08-26T14:32:24.583Z,36.58
2022-08-26T14:35:22.091Z,36.60
2022-08-26T14:38:19.603Z,36.50
2022-08-26T14:41:17.688Z,36.30
2022-08-26T14:44:15.208Z,35.90
2022-08-26T14:47:12.736Z,35.74
2022-08-26T14:50:10.327Z,35.60
2022-08-26T14:53:28.361Z,35.60
2022-08-26T14:56:25.887Z,35.30
2022-08-26T14:59:23.418Z,35.00
2022-08-26T15:02:32.688Z,34.70
2022-08-26T15:05:31.505Z,34.40
2022-08-26T15:08:29.030Z,34.20
2022-08-26T15:11:27.164Z,34.10
2022-08-26T15:14:25.439Z,34.10
2022-08-26T15:17:23.578Z,34.10
2022-08-26T15:20:21.111Z,34.00
2022-08-26T15:23:18.658Z,33.80
2022-08-26T15:26:18.904Z,33.60
2022-08-26T15:29:16.406Z,33.36
2022-08-26T15:32:13.913Z,33.14
2022-08-26T15:35:11.430Z,32.96
2022-08-26T15:38:09.062Z,32.70
2022-08-26T15:41:06.897Z,32.50
2022-08-26T15:44:04.435Z,32.30
2022-08-26T15:47:01.990Z,32.20
2022-08-26T15:49:59.561Z,32.04
2022-08-26T15:52:57.080Z,31.94
2022-08-26T15:55:54.622Z,31.80
2022-08-26T15:58:54.071Z,31.70
2022-08-26T16:01:53.782Z,31.60
2022-08-26T16:04:51.671Z,31.50
2022-08-26T16:07:52.052Z,31.40
2022-08-26T16:10:50.793Z,31.40
2022-08-26T16:13:48.545Z,31.30
2022-08-26T16:16:46.051Z,31.26
2022-08-26T16:19:43.592Z,31.18
2022-08-26T16:22:41.096Z,31.10
2022-08-26T16:25:38.635Z,30.90
2022-08-26T16:28:36.140Z,30.84
2022-08-26T16:31:36.031Z,30.70
2022-08-26T16:34:33.626Z,30.68
2022-08-26T16:37:31.156Z,30.58
2022-08-26T16:40:28.768Z,30.44
2022-08-26T16:43:26.351Z,30.30
2022-08-26T16:46:25.893Z,30.20
2022-08-26T16:49:23.534Z,30.20
2022-08-26T16:52:21.046Z,30.10
2022-08-26T16:55:22.363Z,30.00
2022-08-26T16:58:22.008Z,29.90
2022-08-26T17:01:19.999Z,29.80
2022-08-26T17:04:19.157Z,29.70
2022-08-26T17:07:16.670Z,29.54
2022-08-26T17:10:14.208Z,29.40
2022-08-26T17:13:11.739Z,29.30
2022-08-26T17:16:13.694Z,29.20
2022-08-26T17:19:11.231Z,29.10
2022-08-26T17:22:09.083Z,29.00
2022-08-26T17:25:06.583Z,28.94
2022-08-26T17:28:04.058Z,28.90
2022-08-26T17:31:09.082Z,28.80
2022-08-26T17:34:06.613Z,28.70
2022-08-26T17:37:04.092Z,28.66
2022-08-26T17:40:02.546Z,28.60
2022-08-26T17:43:00.136Z,28.50
2022-08-26T17:45:57.967Z,28.40
2022-08-26T17:48:57.566Z,28.30
2022-08-26T17:51:55.063Z,28.20
2022-08-26T17:54:52.538Z,28.00
2022-08-26T17:57:53.214Z,27.90
2022-08-26T18:00:51.209Z,27.80
2022-08-26T18:03:48.763Z,27.70
2022-08-26T18:06:46.307Z,27.60
2022-08-26T18:09:43.777Z,27.50
2022-08-26T18:12:41.826Z,27.40
2022-08-26T18:15:39.455Z,27.30
2022-08-26T18:18:36.977Z,27.20
2022-08-26T18:21:34.465Z,27.10
2022-08-26T18:24:32.730Z,27.00
2022-08-26T18:27:30.213Z,26.90
2022-08-26T18:30:27.681Z,26.86
2022-08-26T18:33:25.187Z,26.80
2022-08-26T18:36:22.954Z,26.70
2022-08-26T18:39:23.528Z,26.60
2022-08-26T18:42:21.288Z,26.50
2022-08-26T18:45:18.886Z,26.46
2022-08-26T18:48:16.849Z,26.40
2022-08-26T18:51:14.371Z,26.30
2022-08-26T18:54:11.955Z,26.20
2022-08-26T18:57:09.725Z,26.20
2022-08-26T19:00:07.385Z,26.10
2022-08-26T19:03:05.138Z,26.10
2022-08-26T19:06:13.109Z,26.00
2022-08-26T19:09:10.700Z,26.00
2022-08-26T19:12:09.640Z,26.00
2022-08-26T19:15:07.407Z,26.00
2022-08-26T19:18:05.331Z,25.90
2022-08-26T19:21:03.183Z,25.90
2022-08-26T19:24:01.094Z,25.80
2022-08-26T19:26:58.990Z,25.80
2022-08-26T19:29:56.843Z,25.70
2022-08-26T19:32:54.726Z,25.70
2022-08-26T19:35:52.538Z,25.60
2022-08-26T19:38:50.296Z,25.52
2022-08-26T19:41:48.074Z,25.50
2022-08-26T19:45:03.556Z,25.50
2022-08-26T19:48:01.472Z,25.40
2022-08-26T19:50:59.783Z,25.36
2022-08-26T19:53:57.694Z,25.30
2022-08-26T19:56:55.527Z,25.20
2022-08-26T19:59:53.402Z,25.20
2022-08-26T20:02:51.376Z,25.18
2022-08-26T20:05:49.703Z,25.10
2022-08-26T20:08:47.235Z,25.10
2022-08-26T20:11:45.043Z,25.02
2022-08-26T20:14:43.220Z,25.00
2022-08-26T20:17:40.953Z,25.00
2022-08-26T20:20:56.121Z,24.90
2022-08-26T20:23:56.720Z,24.90
2022-08-26T20:26:54.573Z,24.80
2022-08-26T20:29:52.307Z,24.74
2022-08-26T20:32:49.899Z,24.70
2022-08-26T20:35:47.427Z,24.60
2022-08-26T20:38:46.402Z,24.60
2022-08-26T20:41:45.648Z,24.50
2022-08-26T20:44:43.203Z,24.50
2022-08-26T20:47:52.581Z,24.50
2022-08-26T20:50:50.117Z,24.40
2022-08-26T20:53:47.637Z,24.40
2022-08-26T20:56:45.164Z,24.30
2022-08-26T20:59:43.204Z,24.30
2022-08-26T21:02:40.716Z,24.30
2022-08-26T21:05:38.237Z,24.20
2022-08-26T21:08:37.808Z,24.20
2022-08-26T21:11:37.298Z,24.18
2022-08-26T21:14:34.807Z,24.10
2022-08-26T21:17:32.588Z,24.10
2022-08-26T21:20:30.107Z,24.10
2022-08-26T21:23:29.301Z,24.10
2022-08-26T21:26:27.031Z,24.00
2022-08-26T21:29:24.572Z,24.00
2022-08-26T21:32:22.091Z,24.00
2022-08-26T21:35:19.620Z,23.96
2022-08-26T21:38:17.133Z,23.90
2022-08-26T21:41:14.688Z,23.90
2022-08-26T21:44:13.742Z,23.90
2022-08-26T21:47:11.255Z,23.90
2022-08-26T21:50:11.044Z,23.92
2022-08-26T21:53:08.555Z,23.90
2022-08-26T21:56:06.489Z,23.90
2022-08-26T21:59:04.008Z,23.90
2022-08-26T22:02:01.589Z,23.90
2022-08-26T22:04:59.151Z,23.90
2022-08-26T22:07:56.705Z,23.90
2022-08-26T22:10:55.200Z,23.90
2022-08-26T22:13:52.805Z,23.80
2022-08-26T22:16:50.947Z,23.80
2022-08-26T22:19:48.683Z,23.70
2022-08-26T22:22:46.865Z,23.70
2022-08-26T22:25:44.391Z,23.60
2022-08-26T22:28:41.906Z,23.60
2022-08-26T22:31:40.412Z,23.52
2022-08-26T22:34:38.019Z,23.50
2022-08-26T22:37:35.535Z,23.50
2022-08-26T22:40:34.059Z,23.40
2022-08-26T22:43:31.689Z,23.40
2022-08-26T22:46:29.210Z,23.34
2022-08-26T22:49:26.764Z,23.30
2022-08-26T22:52:24.274Z,23.28
2022-08-26T22:55:21.792Z,23.20
2022-08-26T22:58:19.340Z,23.20
2022-08-26T23:01:17.318Z,23.12
2022-08-26T23:04:14.881Z,23.10
2022-08-26T23:07:12.411Z,23.02
2022-08-26T23:10:09.917Z,23.00
2022-08-26T23:13:08.301Z,22.90
2022-08-26T23:16:05.851Z,22.90
2022-08-26T23:19:04.343Z,22.80
2022-08-26T23:22:01.878Z,22.80
2022-08-26T23:25:00.386Z,22.76
2022-08-26T23:27:57.926Z,22.70
2022-08-26T23:30:55.434Z,22.70
2022-08-26T23:34:10.829Z,22.62
2022-08-26T23:37:08.942Z,22.60
2022-08-26T23:40:06.542Z,22.60
2022-08-26T23:43:04.526Z,22.60
2022-08-26T23:46:02.109Z,22.54
2022-08-26T23:48:59.657Z,22.50
2022-08-26T23:52:14.719Z,22.50
2022-08-26T23:55:12.246Z,22.50
2022-08-26T23:58:09.949Z,22.50
